createdAt,value
2024-02-10T00:02:21.564Z,96917.84
2024-02-10T00:04:55.029Z,96915.13
2024-02-10T00:07:25.001Z,96915.63
2024-02-10T00:09:56.957Z,96917.41
2024-02-10T00:12:26.739Z,96919.19
2024-02-10T00:15:03.211Z,96922.75
2024-02-10T00:17:32.990Z,96917.72
2024-02-10T00:20:03.037Z,96925.97
2024-02-10T00:22:30.964Z,96928.44
2024-02-10T00:25:00.792Z,96937.72
2024-02-10T00:27:30.566Z,96930.75
2024-02-10T00:30:06.549Z,96930.13
2024-02-10T00:32:39.159Z,96938.19
2024-02-10T00:35:09.917Z,96947.31
2024-02-10T00:37:40.765Z,96964.34
2024-02-10T00:40:12.476Z,96975.88
2024-02-10T00:42:43.831Z,96964.94
2024-02-10T00:45:16.252Z,96979.69
2024-02-10T00:47:46.833Z,96977.81
2024-02-10T00:50:17.845Z,96982.53
2024-02-10T00:52:51.848Z,96974.50
2024-02-10T00:55:31.705Z,96972.34
2024-02-10T00:58:03.890Z,96960.31
2024-02-10T01:00:38.190Z,96954.66
2024-02-10T01:03:10.839Z,96947.59
2024-02-10T01:05:41.467Z,96936.25
2024-02-10T01:08:11.485Z,96955.00
2024-02-10T01:10:41.302Z,96952.13
2024-02-10T01:13:11.153Z,96951.09
2024-02-10T01:15:46.166Z,96942.44
2024-02-10T01:18:16.090Z,96945.47
2024-02-10T01:20:45.902Z,96952.53
2024-02-10T01:23:15.726Z,96957.53
2024-02-10T01:25:45.597Z,96978.06
2024-02-10T01:28:15.610Z,96998.16
2024-02-10T01:30:48.058Z,97001.63
2024-02-10T01:33:17.919Z,97024.75
2024-02-10T01:35:48.012Z,97017.41
2024-02-10T01:38:17.831Z,96983.06
2024-02-10T01:40:47.664Z,96971.16
2024-02-10T01:43:17.500Z,96961.16
2024-02-10T01:45:51.882Z,96958.50
2024-02-10T01:48:23.610Z,96964.22
2024-02-10T01:50:56.723Z,96973.03
2024-02-10T01:53:27.575Z,96968.22
2024-02-10T01:55:59.573Z,96971.53
2024-02-10T01:58:29.782Z,96959.84
2024-02-10T02:01:02.210Z,96962.41
2024-02-10T02:03:32.108Z,96975.13
2024-02-10T02:06:02.357Z,96992.16
2024-02-10T02:08:35.004Z,96984.75
2024-02-10T02:11:04.787Z,97005.44
2024-02-10T02:13:36.543Z,97007.28
2024-02-10T02:16:12.632Z,97015.38
2024-02-10T02:18:45.543Z,97020.44
2024-02-10T02:21:15.684Z,97004.47
2024-02-10T02:23:48.438Z,97012.38
2024-02-10T02:26:18.345Z,96993.69
2024-02-10T02:28:48.584Z,97000.44
2024-02-10T02:31:18.520Z,96996.16
2024-02-10T02:33:48.371Z,96996.69
2024-02-10T02:36:20.262Z,97002.88
2024-02-10T02:38:52.655Z,97004.94
2024-02-10T02:41:22.471Z,96984.78
2024-02-10T02:43:52.331Z,96973.69
2024-02-10T02:46:22.308Z,96970.91
2024-02-10T02:48:52.795Z,96967.91
2024-02-10T02:51:23.257Z,96975.06
2024-02-10T02:53:59.097Z,96979.09
2024-02-10T02:56:28.720Z,96979.03
2024-02-10T02:58:58.605Z,96993.47
2024-02-10T03:01:28.504Z,96983.84
2024-02-10T03:03:58.321Z,96974.94
2024-02-10T03:06:28.153Z,96984.06
2024-02-10T03:09:00.549Z,96985.53
2024-02-10T03:11:31.393Z,96971.31
2024-02-10T03:14:03.713Z,97000.78
2024-02-10T03:16:34.934Z,97008.22
2024-02-10T03:19:05.771Z,97028.94
2024-02-10T03:21:37.302Z,97041.94
2024-02-10T03:24:10.377Z,97042.75
2024-02-10T03:26:40.266Z,97040.38
2024-02-10T03:29:11.286Z,97061.13
2024-02-10T03:31:41.095Z,97068.84
2024-02-10T03:34:11.101Z,97045.47
2024-02-10T03:36:41.072Z,97050.59
2024-02-10T03:39:13.462Z,97054.31
2024-02-10T03:41:43.268Z,97049.00
2024-02-10T03:44:13.084Z,97030.94
2024-02-10T03:46:42.971Z,97019.22
2024-02-10T03:49:13.612Z,97011.28
2024-02-10T03:51:43.418Z,97031.19
2024-02-10T03:54:15.896Z,97046.00
2024-02-10T03:56:48.225Z,97053.41
2024-02-10T03:59:18.148Z,97062.22
2024-02-10T04:01:48.532Z,97060.13
2024-02-10T04:04:20.487Z,97056.81
2024-02-10T04:06:50.654Z,97055.22
2024-02-10T04:09:24.718Z,97054.31
2024-02-10T04:11:54.553Z,97039.34
2024-02-10T04:14:24.320Z,97029.38
2024-02-10T04:16:55.688Z,97023.56
2024-02-10T04:19:28.172Z,97024.28
2024-02-10T04:21:58.033Z,97037.75
2024-02-10T04:24:30.513Z,97059.00
2024-02-10T04:27:00.817Z,97061.41
2024-02-10T04:29:30.663Z,97073.66
2024-02-10T04:32:00.974Z,97067.69
2024-02-10T04:34:32.706Z,97069.00
2024-02-10T04:37:02.843Z,97058.56
2024-02-10T04:39:36.345Z,97080.44
2024-02-10T04:42:06.655Z,97088.81
2024-02-10T04:44:36.594Z,97085.09
2024-02-10T04:47:06.863Z,97071.28
2024-02-10T04:49:39.272Z,97048.88
2024-02-10T04:52:09.226Z,97069.16
2024-02-10T04:54:41.629Z,97067.94
2024-02-10T04:57:11.468Z,97048.97
2024-02-10T04:59:41.299Z,97029.25
2024-02-10T05:02:11.298Z,97009.84
2024-02-10T05:04:44.801Z,96998.41
2024-02-10T05:07:16.749Z,96988.28
2024-02-10T05:09:49.216Z,96976.88
2024-02-10T05:12:18.998Z,96982.81
2024-02-10T05:14:48.778Z,96969.56
2024-02-10T05:17:18.607Z,96975.22
2024-02-10T05:19:48.548Z,96966.56
2024-02-10T05:22:20.028Z,96991.88
2024-02-10T05:24:52.431Z,96987.25
2024-02-10T05:27:22.242Z,96985.59
2024-02-10T05:29:53.846Z,96972.81
2024-02-10T05:32:24.328Z,96968.25
2024-02-10T05:34:54.213Z,96961.63
2024-02-10T05:37:24.116Z,96963.00
2024-02-10T05:39:56.504Z,96951.56
2024-02-10T05:42:26.281Z,96941.84
2024-02-10T05:44:59.071Z,96938.28
2024-02-10T05:47:29.035Z,96955.97
2024-02-10T05:50:00.560Z,96975.13
2024-02-10T05:52:30.445Z,96965.50
2024-02-10T05:55:03.051Z,96964.59
2024-02-10T05:57:32.910Z,96976.53
2024-02-10T06:00:02.709Z,96975.28
2024-02-10T06:02:34.501Z,96971.00
2024-02-10T06:05:05.685Z,96967.06
2024-02-10T06:07:36.565Z,96948.97
2024-02-10T06:10:14.281Z,96956.22
2024-02-10T06:12:46.076Z,96953.09
2024-02-10T06:15:19.009Z,96951.38
2024-02-10T06:17:52.071Z,96951.03
2024-02-10T06:20:24.834Z,96956.06
2024-02-10T06:22:56.916Z,96967.25
2024-02-10T06:25:30.054Z,96980.28
2024-02-10T06:28:02.213Z,96989.66
2024-02-10T06:30:35.005Z,97001.63
2024-02-10T06:33:06.210Z,96990.66
2024-02-10T06:35:38.100Z,96982.66
2024-02-10T06:38:11.368Z,96971.09
2024-02-10T06:40:45.386Z,96955.69
2024-02-10T06:43:16.193Z,96974.63
2024-02-10T06:45:47.588Z,96957.13
2024-02-10T06:48:18.040Z,96970.72
2024-02-10T06:50:48.006Z,96998.81
2024-02-10T06:53:20.957Z,97029.53
2024-02-10T06:55:53.477Z,97049.03
2024-02-10T06:58:24.287Z,97068.63
2024-02-10T07:00:56.700Z,97058.19
2024-02-10T07:03:27.598Z,97050.94
2024-02-10T07:05:58.029Z,97044.88
2024-02-10T07:08:30.713Z,97061.22
2024-02-10T07:11:03.130Z,97058.00
2024-02-10T07:13:34.215Z,97039.25
2024-02-10T07:16:07.424Z,97034.06
2024-02-10T07:18:48.847Z,97045.63
2024-02-10T07:21:19.280Z,97025.19
2024-02-10T07:23:49.559Z,97021.34
2024-02-10T07:26:23.956Z,97027.50
2024-02-10T07:28:55.192Z,97039.59
2024-02-10T07:31:25.590Z,97042.22
2024-02-10T07:34:00.235Z,97031.78
2024-02-10T07:36:36.429Z,97046.59
2024-02-10T07:39:09.015Z,97062.56
2024-02-10T07:41:41.885Z,97057.28
2024-02-10T07:44:14.694Z,97074.22
2024-02-10T07:46:44.811Z,97066.69
2024-02-10T07:49:15.266Z,97073.00
2024-02-10T07:51:49.258Z,97075.53
2024-02-10T07:54:20.593Z,97081.97
2024-02-10T07:56:53.040Z,97069.69
2024-02-10T07:59:25.358Z,97074.78
2024-02-10T08:01:55.228Z,97063.63
2024-02-10T08:04:25.307Z,97053.06
2024-02-10T08:06:55.129Z,97064.47
2024-02-10T08:09:24.922Z,97065.72
2024-02-10T08:11:57.344Z,97062.25
2024-02-10T08:14:27.143Z,97067.31
2024-02-10T08:16:57.492Z,97074.97
2024-02-10T08:19:30.618Z,97084.88
2024-02-10T08:22:03.863Z,97086.22
2024-02-10T08:24:33.979Z,97094.44
2024-02-10T08:27:08.995Z,97102.75
2024-02-10T08:29:40.684Z,97103.75
2024-02-10T08:32:12.420Z,97114.56
2024-02-10T08:34:43.983Z,97109.19
2024-02-10T08:37:14.238Z,97107.16
2024-02-10T08:39:47.239Z,97096.88
2024-02-10T08:42:20.825Z,97096.25
2024-02-10T08:44:50.709Z,97102.19
2024-02-10T08:47:20.571Z,97097.00
2024-02-10T08:49:51.065Z,97097.38
2024-02-10T08:52:23.121Z,97089.47
2024-02-10T08:54:52.541Z,97089.13
2024-02-10T08:57:26.164Z,97098.41
2024-02-10T08:59:56.494Z,97086.81
2024-02-10T09:02:29.083Z,97090.03
2024-02-10T09:04:58.960Z,97098.75
2024-02-10T09:07:28.895Z,97101.88
2024-02-10T09:09:58.731Z,97079.13
2024-02-10T09:12:31.547Z,97081.72
2024-02-10T09:15:01.377Z,97075.94
2024-02-10T09:17:31.210Z,97057.00
2024-02-10T09:20:01.575Z,97041.88
2024-02-10T09:22:31.651Z,97037.78
2024-02-10T09:25:01.488Z,97028.56
2024-02-10T09:27:33.921Z,97032.47
2024-02-10T09:30:05.092Z,97046.28
2024-02-10T09:32:36.918Z,97047.25
2024-02-10T09:35:05.107Z,97040.47
2024-02-10T09:37:35.088Z,97038.03
2024-02-10T09:40:05.569Z,97052.34
2024-02-10T09:42:47.663Z,97057.16
2024-02-10T09:45:19.356Z,97067.59
2024-02-10T09:47:52.361Z,97073.38
2024-02-10T09:50:31.061Z,97077.25
2024-02-10T09:53:07.823Z,97070.56
2024-02-10T09:55:37.951Z,97084.97
2024-02-10T09:58:10.965Z,97094.69
2024-02-10T10:00:40.781Z,97094.78
2024-02-10T10:03:15.702Z,97096.03
2024-02-10T10:05:47.399Z,97089.66
2024-02-10T10:08:17.403Z,97083.63
2024-02-10T10:10:47.245Z,97084.06
2024-02-10T10:13:19.750Z,97072.78
2024-02-10T10:15:49.819Z,97068.22
2024-02-10T10:18:21.322Z,97066.28
2024-02-10T10:20:52.990Z,97065.81
2024-02-10T10:23:22.865Z,97066.59
2024-02-10T10:25:53.153Z,97052.66
2024-02-10T10:28:25.578Z,97041.44
2024-02-10T10:30:59.653Z,97027.44
2024-02-10T10:33:31.345Z,97029.50
2024-02-10T10:36:03.964Z,97028.59
2024-02-10T10:38:34.227Z,97023.28
2024-02-10T10:41:07.384Z,97027.63
2024-02-10T10:43:42.211Z,97039.47
2024-02-10T10:46:12.370Z,97035.94
2024-02-10T10:48:42.351Z,97026.69
2024-02-10T10:51:14.887Z,97013.06
2024-02-10T10:53:47.433Z,97003.03
2024-02-10T10:56:20.627Z,97001.97
2024-02-10T10:58:59.595Z,96989.34
2024-02-10T11:01:31.303Z,96974.00
2024-02-10T11:04:03.543Z,96979.19
2024-02-10T11:06:33.966Z,96976.00
2024-02-10T11:09:08.228Z,96975.09
2024-02-10T11:11:40.548Z,96977.81
2024-02-10T11:14:16.131Z,96979.34
2024-02-10T11:16:46.073Z,96983.47
2024-02-10T11:19:18.245Z,96986.88
2024-02-10T11:21:49.983Z,96979.34
2024-02-10T11:24:21.028Z,96982.97
2024-02-10T11:26:50.935Z,96978.09
2024-02-10T11:29:23.626Z,96976.78
2024-02-10T11:31:53.657Z,96964.50
2024-02-10T11:34:23.625Z,96964.19
2024-02-10T11:36:55.739Z,96964.81
2024-02-10T11:39:27.166Z,96970.66
2024-02-10T11:42:01.743Z,96974.78
2024-02-10T11:44:37.347Z,96974.31
2024-02-10T11:47:10.034Z,96975.75
2024-02-10T11:49:40.888Z,96977.34
2024-02-10T11:52:11.717Z,96959.59
2024-02-10T11:54:42.550Z,96954.66
2024-02-10T11:57:12.384Z,96952.81
2024-02-10T11:59:45.246Z,96957.69
2024-02-10T12:02:17.474Z,96962.81
2024-02-10T12:04:48.795Z,96973.88
2024-02-10T12:07:19.015Z,96967.75
2024-02-10T12:09:48.894Z,96964.31
2024-02-10T12:12:19.526Z,96961.31
2024-02-10T12:14:53.529Z,96961.44
2024-02-10T12:17:23.640Z,96954.69
2024-02-10T12:19:54.174Z,96955.69
2024-02-10T12:22:24.137Z,96958.53
2024-02-10T12:24:55.023Z,96962.38
2024-02-10T12:27:27.605Z,96963.91
2024-02-10T12:30:01.786Z,96974.78
2024-02-10T12:32:34.349Z,96969.44
2024-02-10T12:35:14.528Z,96954.88
2024-02-10T12:37:46.544Z,96946.88
2024-02-10T12:40:19.484Z,96952.38
2024-02-10T12:42:49.470Z,96952.22
2024-02-10T12:45:21.856Z,96959.44
2024-02-10T12:47:54.377Z,96965.41
2024-02-10T12:50:24.320Z,96966.84
2024-02-10T12:52:54.422Z,96963.53
2024-02-10T12:55:24.305Z,96968.47
2024-02-10T12:57:54.165Z,96963.56
2024-02-10T13:00:27.001Z,96954.00
2024-02-10T13:02:58.394Z,96950.56
2024-02-10T13:05:29.659Z,96946.53
2024-02-10T13:08:00.534Z,96943.59
2024-02-10T13:10:31.957Z,96941.06
2024-02-10T13:13:04.063Z,96944.94
2024-02-10T13:15:44.744Z,96943.75
2024-02-10T13:18:24.262Z,96938.25
2024-02-10T13:20:56.903Z,96939.84
2024-02-10T13:23:26.740Z,96942.03
2024-02-10T13:25:58.669Z,96943.41
2024-02-10T13:28:32.100Z,96947.63
2024-02-10T13:31:04.554Z,96947.59
2024-02-10T13:33:34.459Z,96937.19
2024-02-10T13:36:05.665Z,96943.75
2024-02-10T13:38:48.075Z,96946.50
2024-02-10T13:41:30.454Z,96944.34
2024-02-10T13:44:12.947Z,96941.06
2024-02-10T13:46:58.014Z,96933.41
2024-02-10T13:49:40.435Z,96938.63
2024-02-10T13:52:22.849Z,96945.47
2024-02-10T13:55:05.202Z,96956.13
2024-02-10T13:57:47.545Z,96952.31
2024-02-10T14:00:29.740Z,96953.94
2024-02-10T14:03:02.865Z,96954.16
2024-02-10T14:05:56.787Z,96969.50
2024-02-10T14:08:42.631Z,96967.91
2024-02-10T14:11:21.871Z,96969.41
2024-02-10T14:13:55.209Z,96969.84
2024-02-10T14:16:32.067Z,96980.06
2024-02-10T14:19:07.638Z,96979.81
2024-02-10T14:21:40.181Z,96980.94
2024-02-10T14:24:17.007Z,96979.13
2024-02-10T14:27:02.626Z,96981.88
2024-02-10T14:29:36.090Z,96980.94
2024-02-10T14:32:12.153Z,96989.22
2024-02-10T14:35:05.438Z,96989.06
2024-02-10T14:37:43.484Z,97003.13
2024-02-10T14:40:20.791Z,97005.00
2024-02-10T14:42:51.089Z,97015.75
2024-02-10T14:45:22.819Z,97018.78
2024-02-10T14:47:56.045Z,97018.09
2024-02-10T14:50:29.440Z,97035.25
2024-02-10T14:52:59.497Z,97034.69
2024-02-10T14:55:30.142Z,97044.19
2024-02-10T14:57:59.974Z,97039.50
2024-02-10T15:00:32.580Z,97042.19
2024-02-10T15:03:03.682Z,97057.44
2024-02-10T15:05:36.104Z,97052.38
2024-02-10T15:08:06.021Z,97055.03
2024-02-10T15:10:35.930Z,97057.19
2024-02-10T15:13:06.501Z,97053.84
2024-02-10T15:15:39.407Z,97053.09
2024-02-10T15:18:09.992Z,97052.75
2024-02-10T15:20:43.798Z,97051.97
2024-02-10T15:23:14.967Z,97046.69
2024-02-10T15:25:45.405Z,97050.84
2024-02-10T15:28:18.513Z,97053.81
2024-02-10T15:30:48.998Z,97068.34
2024-02-10T15:33:20.853Z,97067.22
2024-02-10T15:35:54.048Z,97068.16
2024-02-10T15:38:25.753Z,97065.69
2024-02-10T15:40:57.990Z,97065.28
2024-02-10T15:43:32.670Z,97063.91
2024-02-10T15:46:02.794Z,97063.97
2024-02-10T15:48:32.733Z,97068.81
2024-02-10T15:51:05.145Z,97083.81
2024-02-10T15:53:38.673Z,97074.97
2024-02-10T15:56:09.586Z,97077.88
2024-02-10T15:58:43.777Z,97090.41
2024-02-10T16:01:21.422Z,97087.84
2024-02-10T16:03:52.068Z,97098.84
2024-02-10T16:06:24.483Z,97095.66
2024-02-10T16:08:55.692Z,97111.91
2024-02-10T16:11:30.516Z,97113.84
2024-02-10T16:14:00.419Z,97118.16
2024-02-10T16:16:31.037Z,97118.69
2024-02-10T16:19:01.260Z,97125.44
2024-02-10T16:21:33.744Z,97122.38
2024-02-10T16:24:04.463Z,97124.44
2024-02-10T16:26:34.365Z,97116.47
2024-02-10T16:29:04.222Z,97127.88
2024-02-10T16:31:34.167Z,97126.59
2024-02-10T16:34:05.894Z,97127.25
2024-02-10T16:36:43.309Z,97134.97
2024-02-10T16:39:13.812Z,97130.09
2024-02-10T16:41:44.230Z,97129.75
2024-02-10T16:44:14.283Z,97116.75
2024-02-10T16:46:48.979Z,97118.53
2024-02-10T16:49:24.264Z,97122.41
2024-02-10T16:51:56.932Z,97119.66
2024-02-10T16:54:26.885Z,97116.47
2024-02-10T16:56:57.315Z,97114.16
2024-02-10T16:59:29.288Z,97114.50
2024-02-10T17:02:00.191Z,97112.94
2024-02-10T17:04:30.088Z,97108.03
2024-02-10T17:07:02.595Z,97079.50
2024-02-10T17:09:33.096Z,97074.78
2024-02-10T17:12:03.004Z,97096.84
2024-02-10T17:14:33.904Z,97101.25
2024-02-10T17:17:03.907Z,97089.59
2024-02-10T17:19:34.465Z,97077.94
2024-02-10T17:22:07.797Z,97067.50
2024-02-10T17:24:39.294Z,97061.13
2024-02-10T17:27:09.171Z,97079.41
2024-02-10T17:29:40.334Z,97087.94
2024-02-10T17:32:10.263Z,97071.59
2024-02-10T17:34:40.372Z,97066.75
2024-02-10T17:37:13.362Z,97072.06
2024-02-10T17:39:43.744Z,97074.31
2024-02-10T17:42:13.693Z,97087.97
2024-02-10T17:44:47.097Z,97102.81
2024-02-10T17:47:19.228Z,97107.88
2024-02-10T17:49:49.806Z,97101.81
2024-02-10T17:52:23.730Z,97106.22
2024-02-10T17:54:54.752Z,97101.88
2024-02-10T17:57:24.665Z,97087.81
2024-02-10T17:59:58.472Z,97076.09
2024-02-10T18:02:28.428Z,97077.13
2024-02-10T18:04:58.546Z,97081.84
2024-02-10T18:07:31.793Z,97084.47
2024-02-10T18:10:06.031Z,97092.94
2024-02-10T18:12:37.083Z,97106.59
2024-02-10T18:15:09.529Z,97122.09
2024-02-10T18:17:39.742Z,97143.28
2024-02-10T18:20:11.507Z,97134.97
2024-02-10T18:22:44.728Z,97135.63
2024-02-10T18:25:15.617Z,97121.44
2024-02-10T18:27:46.550Z,97126.56
2024-02-10T18:30:20.175Z,97139.50
2024-02-10T18:32:50.200Z,97126.13
2024-02-10T18:35:24.358Z,97120.63
2024-02-10T18:37:58.536Z,97123.03
2024-02-10T18:40:31.281Z,97133.09
2024-02-10T18:43:03.100Z,97134.75
2024-02-10T18:45:35.607Z,97145.53
2024-02-10T18:48:05.964Z,97135.44
2024-02-10T18:50:37.432Z,97156.19
2024-02-10T18:53:11.114Z,97155.41
2024-02-10T18:55:44.234Z,97139.00
2024-02-10T18:58:15.696Z,97136.22
2024-02-10T19:00:50.721Z,97112.09
2024-02-10T19:03:20.723Z,97118.56
2024-02-10T19:05:50.795Z,97126.28
2024-02-10T19:08:24.099Z,97116.78
2024-02-10T19:10:54.020Z,97117.59
2024-02-10T19:13:26.028Z,97107.75
2024-02-10T19:15:56.217Z,97100.69
2024-02-10T19:18:26.324Z,97107.75
2024-02-10T19:20:58.315Z,97113.88
2024-02-10T19:23:30.816Z,97117.25
2024-02-10T19:26:00.778Z,97115.91
2024-02-10T19:28:32.848Z,97122.38
2024-02-10T19:31:02.767Z,97132.56
2024-02-10T19:33:33.284Z,97125.66
2024-02-10T19:36:04.123Z,97124.38
2024-02-10T19:38:37.792Z,97127.25
2024-02-10T19:41:09.080Z,97113.22
2024-02-10T19:43:39.111Z,97112.63
2024-02-10T19:46:09.089Z,97103.56
2024-02-10T19:48:39.484Z,97124.91
2024-02-10T19:51:14.528Z,97124.47
2024-02-10T19:53:48.631Z,97127.72
2024-02-10T19:56:19.543Z,97129.75
2024-02-10T19:58:51.957Z,97138.84
2024-02-10T20:01:26.398Z,97130.47
2024-02-10T20:03:57.478Z,97128.72
2024-02-10T20:06:27.511Z,97118.81
2024-02-10T20:09:03.385Z,97120.09
2024-02-10T20:11:33.324Z,97122.53
2024-02-10T20:14:05.819Z,97121.13
2024-02-10T20:16:36.310Z,97121.91
2024-02-10T20:19:07.064Z,97139.75
2024-02-10T20:21:37.182Z,97126.06
2024-02-10T20:24:10.726Z,97125.66
2024-02-10T20:26:40.833Z,97123.97
2024-02-10T20:29:10.848Z,97119.31
2024-02-10T20:31:40.841Z,97120.19
2024-02-10T20:34:12.020Z,97127.53
2024-02-10T20:36:41.818Z,97138.97
2024-02-10T20:39:15.417Z,97140.09
2024-02-10T20:41:45.506Z,97132.06
2024-02-10T20:44:15.357Z,97132.31
2024-02-10T20:46:47.514Z,97129.47
2024-02-10T20:49:18.055Z,97149.44
2024-02-10T20:51:48.257Z,97153.28
2024-02-10T20:54:21.852Z,97150.88
2024-02-10T20:56:52.549Z,97156.97
2024-02-10T20:59:25.771Z,97153.09
2024-02-10T21:01:56.263Z,97155.84
2024-02-10T21:04:27.216Z,97170.84
2024-02-10T21:06:58.139Z,97185.84
2024-02-10T21:09:30.976Z,97177.13
2024-02-10T21:12:05.815Z,97182.28
2024-02-10T21:14:36.822Z,97177.69
2024-02-10T21:17:06.969Z,97178.63
2024-02-10T21:19:39.080Z,97173.00
2024-02-10T21:22:09.744Z,97179.69
2024-02-10T21:24:42.110Z,97178.03
2024-02-10T21:27:13.709Z,97165.41
2024-02-10T21:29:45.485Z,97163.69
2024-02-10T21:32:15.753Z,97165.25
2024-02-10T21:34:45.619Z,97180.41
2024-02-10T21:37:15.892Z,97161.34
2024-02-10T21:39:48.321Z,97180.00
2024-02-10T21:42:19.389Z,97179.44
2024-02-10T21:44:56.270Z,97174.94
2024-02-10T21:47:26.201Z,97176.47
2024-02-10T21:49:57.586Z,97176.03
2024-02-10T21:52:28.954Z,97180.63
2024-02-10T21:55:02.106Z,97194.97
2024-02-10T21:57:37.170Z,97200.91
2024-02-10T22:00:11.211Z,97210.16
2024-02-10T22:02:42.292Z,97209.66
2024-02-10T22:05:12.460Z,97203.59
2024-02-10T22:07:42.924Z,97199.50
2024-02-10T22:10:15.672Z,97213.28
2024-02-10T22:12:46.860Z,97212.63
2024-02-10T22:15:20.948Z,97227.63
2024-02-10T22:17:51.549Z,97223.16
2024-02-10T22:20:21.737Z,97234.63
2024-02-10T22:22:51.987Z,97246.34
2024-02-10T22:25:24.592Z,97240.75
2024-02-10T22:27:54.413Z,97249.84
2024-02-10T22:30:27.614Z,97261.34
2024-02-10T22:32:57.649Z,97265.41
2024-02-10T22:35:27.918Z,97270.56
2024-02-10T22:37:58.729Z,97277.72
2024-02-10T22:40:31.608Z,97284.94
2024-02-10T22:43:01.985Z,97286.97
2024-02-10T22:45:32.225Z,97286.03
2024-02-10T22:48:03.204Z,97298.56
2024-02-10T22:50:33.401Z,97310.00
2024-02-10T22:53:05.036Z,97326.75
2024-02-10T22:55:41.933Z,97342.28
2024-02-10T22:58:11.808Z,97346.66
2024-02-10T23:00:47.429Z,97347.97
2024-02-10T23:03:17.907Z,97345.44
2024-02-10T23:05:51.728Z,97348.25
2024-02-10T23:08:22.205Z,97363.91
2024-02-10T23:10:54.632Z,97366.03
2024-02-10T23:13:27.087Z,97369.47
2024-02-10T23:15:57.628Z,97374.63
2024-02-10T23:18:30.795Z,97363.91
2024-02-10T23:21:02.464Z,97369.56
2024-02-10T23:23:34.335Z,97372.88
2024-02-10T23:26:12.292Z,97384.41
2024-02-10T23:28:43.595Z,97379.38
2024-02-10T23:31:13.662Z,97392.28
2024-02-10T23:33:44.912Z,97378.25
2024-02-10T23:36:26.371Z,97385.22
2024-02-10T23:38:59.768Z,97382.34
2024-02-10T23:41:32.943Z,97371.06
2024-02-10T23:44:03.892Z,97361.19
2024-02-10T23:46:34.287Z,97377.44
2024-02-10T23:49:04.345Z,97374.31
2024-02-10T23:51:35.674Z,97374.53
2024-02-10T23:54:07.043Z,97382.38
2024-02-10T23:56:40.358Z,97393.91
2024-02-10T23:59:12.694Z,97404.94
